createdAt,value
2023-08-30T00:00:03.588Z,26.4
2023-08-30T00:05:40.034Z,26.5
2023-08-30T00:11:16.166Z,26.4
2023-08-30T00:16:37.186Z,26.4
2023-08-30T00:21:56.744Z,26.5
2023-08-30T00:27:17.560Z,26.5
2023-08-30T00:32:39.567Z,26.5
2023-08-30T00:38:00.386Z,26.5
2023-08-30T00:43:21.373Z,26.5
2023-08-30T00:48:27.892Z,26.5
2023-08-30T00:54:04.606Z,26.6
2023-08-30T00:59:44.282Z,26.6
2023-08-30T01:05:20.815Z,26.6
2023-08-30T01:10:41.310Z,26.6
2023-08-30T01:16:02.853Z,26.6
2023-08-30T01:21:38.906Z,26.6
2023-08-30T01:27:15.203Z,26.6
2023-08-30T01:33:06.861Z,26.6
2023-08-30T01:38:43.575Z,26.6
2023-08-30T01:44:34.026Z,26.6
2023-08-30T01:50:25.963Z,26.6
2023-08-30T01:56:02.070Z,26.6
2023-08-30T02:01:52.990Z,26.6
2023-08-30T02:07:44.822Z,26.6
2023-08-30T02:13:20.808Z,26.6
2023-08-30T02:19:13.854Z,26.6
2023-08-30T02:24:54.568Z,26.6
2023-08-30T02:30:30.972Z,26.6
2023-08-30T02:36:07.048Z,26.6
2023-08-30T02:41:43.781Z,26.6
2023-08-30T02:47:22.952Z,26.6
2023-08-30T02:52:58.871Z,26.6
2023-08-30T02:58:51.167Z,26.7
2023-08-30T03:04:42.670Z,26.6
2023-08-30T03:10:36.256Z,26.6
2023-08-30T03:16:28.229Z,26.6
2023-08-30T03:22:20.179Z,26.7
2023-08-30T03:28:11.582Z,26.7
2023-08-30T03:34:04.105Z,26.7
2023-08-30T03:39:40.088Z,26.6
2023-08-30T03:45:00.740Z,26.7
2023-08-30T03:50:22.938Z,26.7
2023-08-30T03:55:44.387Z,26.7
2023-08-30T04:01:22.902Z,26.7
2023-08-30T04:07:00.579Z,26.6
2023-08-30T04:12:21.478Z,26.6
2023-08-30T04:18:00.264Z,26.6
2023-08-30T04:23:24.702Z,26.4
2023-08-30T04:28:31.057Z,26.4
2023-08-30T04:34:07.670Z,26.3
2023-08-30T04:40:10.635Z,26.2
2023-08-30T04:46:04.149Z,26.1
2023-08-30T04:51:57.121Z,26.1
2023-08-30T04:57:49.550Z,26
2023-08-30T05:03:42.148Z,25.9
2023-08-30T05:09:33.754Z,25.9
2023-08-30T05:15:25.764Z,25.8
2023-08-30T05:21:04.961Z,25.8
2023-08-30T05:26:58.346Z,25.6
2023-08-30T05:32:50.685Z,25.6
2023-08-30T05:38:43.306Z,25.6
2023-08-30T05:44:34.689Z,25.5
2023-08-30T05:50:26.562Z,25.4
2023-08-30T05:56:18.199Z,25.4
2023-08-30T06:02:11.688Z,25.4
2023-08-30T06:08:03.891Z,25.4
2023-08-30T06:13:54.539Z,25.4
2023-08-30T06:19:45.280Z,25.3
2023-08-30T06:25:37.401Z,25.3
2023-08-30T06:31:27.101Z,25.3
2023-08-30T06:37:18.726Z,25.3
2023-08-30T06:43:13.184Z,25.3
2023-08-30T06:48:49.409Z,25.3
2023-08-30T06:54:26.396Z,25.3
2023-08-30T07:00:03.060Z,25.3
2023-08-30T07:05:39.029Z,25.3
2023-08-30T07:11:32.530Z,25.3
2023-08-30T07:17:09.526Z,25.3
2023-08-30T07:22:57.308Z,25.3
2023-08-30T07:28:35.021Z,25.3
2023-08-30T07:34:27.910Z,25.3
2023-08-30T07:40:37.729Z,25.3
2023-08-30T07:46:33.957Z,25.3
2023-08-30T07:52:39.346Z,25.3
2023-08-30T07:58:35.118Z,25.3
2023-08-30T08:04:39.266Z,25.4
2023-08-30T08:10:31.832Z,25.4
2023-08-30T08:16:23.756Z,25.4
2023-08-30T08:22:00.939Z,25.4
2023-08-30T08:27:55.703Z,25.4
2023-08-30T08:33:47.039Z,25.4
2023-08-30T08:39:40.616Z,25.4
2023-08-30T08:45:44.452Z,25.4
2023-08-30T08:51:21.544Z,25.5
2023-08-30T08:57:35.638Z,25.5
2023-08-30T09:03:48.905Z,25.5
2023-08-30T09:09:39.107Z,25.6
2023-08-30T09:15:41.773Z,25.6
2023-08-30T09:21:48.340Z,25.6
2023-08-30T09:27:40.243Z,25.6
2023-08-30T09:33:45.465Z,25.6
2023-08-30T09:39:37.587Z,25.6
2023-08-30T09:45:52.627Z,25.6
2023-08-30T09:51:56.517Z,25.7
2023-08-30T10:35:07.220Z,25.8
2023-08-30T10:40:58.079Z,25.9
2023-08-30T10:47:09.914Z,25.9
2023-08-30T10:53:02.378Z,25.9
2023-08-30T10:58:53.921Z,25.9
2023-08-30T11:05:03.495Z,25.9
2023-08-30T11:10:40.372Z,25.9
2023-08-30T11:16:32.479Z,25.9
2023-08-30T11:22:23.113Z,26
2023-08-30T11:28:01.617Z,26
2023-08-30T11:33:38.568Z,26
2023-08-30T11:38:58.356Z,26
2023-08-30T11:44:47.630Z,26.1
2023-08-30T11:50:25.912Z,26.1
2023-08-30T11:56:08.254Z,26.1
2023-08-30T12:01:44.799Z,26.1
2023-08-30T12:07:37.328Z,26.1
2023-08-30T12:13:28.929Z,26.1
2023-08-30T12:19:05.812Z,26.1
2023-08-30T12:24:42.489Z,26.1
2023-08-30T12:30:33.014Z,26.1
2023-08-30T12:36:09.869Z,26.2
2023-08-30T12:41:49.301Z,26.2
2023-08-30T12:47:25.619Z,26.2
2023-08-30T12:53:02.537Z,26.2
2023-08-30T12:58:54.943Z,26.2
2023-08-30T13:04:32.898Z,26.2
2023-08-30T13:10:24.745Z,26.3
2023-08-30T13:16:01.305Z,26.2
2023-08-30T13:21:27.521Z,26.3
2023-08-30T13:27:08.156Z,26.3
2023-08-30T13:32:45.136Z,26.3
2023-08-30T13:38:21.602Z,26.3
2023-08-30T13:43:59.346Z,26.3
2023-08-30T13:49:39.746Z,26.4
2023-08-30T13:55:15.541Z,26.4
2023-08-30T14:00:52.284Z,26.4
2023-08-30T14:06:29.605Z,26.4
2023-08-30T14:12:24.129Z,26.4
2023-08-30T14:18:18.096Z,26.4
2023-08-30T14:23:55.128Z,26.4
2023-08-30T14:29:49.812Z,26.4
2023-08-30T14:35:43.528Z,26.4
2023-08-30T14:41:20.881Z,26.4
2023-08-30T14:47:29.520Z,26.4
2023-08-30T14:53:22.988Z,26.4
2023-08-30T14:59:18.773Z,26.4
2023-08-30T15:05:11.172Z,26.4
2023-08-30T15:11:04.749Z,26.4
2023-08-30T15:16:57.102Z,26.4
2023-08-30T15:22:50.011Z,26.4
2023-08-30T15:28:41.954Z,26.4
2023-08-30T15:34:36.211Z,26.4
2023-08-30T15:40:11.963Z,26.4
2023-08-30T15:46:03.790Z,26.4
2023-08-30T15:51:53.246Z,26.4
2023-08-30T15:57:45.056Z,26.4
2023-08-30T16:03:37.688Z,26.4
2023-08-30T16:09:31.979Z,26.4
2023-08-30T16:15:23.904Z,26.5
2023-08-30T16:21:15.917Z,26.4
2023-08-30T16:27:08.592Z,26.4
2023-08-30T16:33:00.495Z,26.4
2023-08-30T16:38:53.273Z,26.4
2023-08-30T16:44:49.192Z,26.5
2023-08-30T16:51:04.217Z,26.4
2023-08-30T16:56:56.061Z,26.5
2023-08-30T17:02:51.285Z,26.4
2023-08-30T17:08:42.926Z,26.5
2023-08-30T17:14:35.831Z,26.4
2023-08-30T17:20:30.424Z,26.5
2023-08-30T17:25:51.149Z,26.4
2023-08-30T17:31:27.776Z,26.4
2023-08-30T17:37:25.364Z,26.4
2023-08-30T17:43:17.974Z,26.4
2023-08-30T17:49:01.703Z,26.4
2023-08-30T17:54:38.632Z,26.4
2023-08-30T18:00:29.567Z,26.3
2023-08-30T18:06:07.303Z,26.3
2023-08-30T18:12:01.964Z,26.3
2023-08-30T18:17:38.157Z,26.3
2023-08-30T18:23:30.048Z,26.3
2023-08-30T18:28:52.673Z,26.3
2023-08-30T18:34:44.508Z,26.2
2023-08-30T18:40:37.650Z,26.2
2023-08-30T18:46:40.759Z,26.2
2023-08-30T18:52:18.717Z,26.1
2023-08-30T18:57:58.860Z,26.1
2023-08-30T19:03:22.048Z,26
2023-08-30T19:09:15.492Z,26
2023-08-30T19:15:10.107Z,25.9
2023-08-30T19:21:04.110Z,25.9
2023-08-30T19:26:41.662Z,25.9
2023-08-30T19:32:20.052Z,25.8
2023-08-30T19:38:14.015Z,25.8
2023-08-30T19:44:06.582Z,25.8
2023-08-30T19:50:00.502Z,25.7
2023-08-30T19:55:53.428Z,25.6
2023-08-30T20:01:49.654Z,25.6
2023-08-30T20:07:42.597Z,25.6
2023-08-30T20:13:34.576Z,25.6
2023-08-30T20:19:29.164Z,25.5
2023-08-30T20:25:05.979Z,25.4
2023-08-30T20:30:45.013Z,25.4
2023-08-30T20:36:43.697Z,25.4
2023-08-30T20:42:46.117Z,25.4
2023-08-30T20:48:23.619Z,25.4
2023-08-30T20:54:00.264Z,25.4
2023-08-30T21:00:08.727Z,25.3
2023-08-30T21:06:01.721Z,25.3
2023-08-30T21:11:53.262Z,25.1
2023-08-30T21:17:37.126Z,25.1
2023-08-30T21:23:14.284Z,25.1
2023-08-30T21:29:06.814Z,25
2023-08-30T21:35:00.614Z,24.9
2023-08-30T21:40:52.783Z,25
2023-08-30T21:46:45.648Z,25
2023-08-30T21:52:37.790Z,25
2023-08-30T21:58:30.031Z,25
2023-08-30T22:04:22.408Z,25
2023-08-30T22:10:14.580Z,25.1
2023-08-30T22:16:11.740Z,25.1
2023-08-30T22:21:47.996Z,25.1
2023-08-30T22:27:40.025Z,25.1
2023-08-30T22:33:32.688Z,25.1
2023-08-30T22:39:25.616Z,25.2
2023-08-30T22:45:02.237Z,25.2
2023-08-30T22:50:54.420Z,25.2
2023-08-30T22:56:56.094Z,25.3
2023-08-30T23:02:49.209Z,25.3
2023-08-30T23:08:26.198Z,25.3
2023-08-30T23:14:17.896Z,25.3
2023-08-30T23:19:54.527Z,25.3
2023-08-30T23:25:31.296Z,25.3
2023-08-30T23:31:21.700Z,25.3
2023-08-30T23:37:13.493Z,25.3
2023-08-30T23:43:09.057Z,25.4
2023-08-30T23:49:01.712Z,25.4
2023-08-30T23:54:38.292Z,25.4
